createdAt,value
2019-06-01T00:00:40.255Z,15.97
2019-06-01T00:03:11.059Z,16.26
2019-06-01T00:05:42.554Z,16.50
2019-06-01T00:08:13.406Z,16.54
2019-06-01T00:10:45.199Z,16.26
2019-06-01T00:13:16.064Z,16.30
2019-06-01T00:15:48.191Z,16.30
2019-06-01T00:18:19.127Z,16.31
2019-06-01T00:20:50.714Z,16.31
2019-06-01T00:23:21.596Z,16.37
2019-06-01T00:25:52.910Z,16.50
2019-06-01T00:28:23.855Z,16.21
2019-06-01T00:30:54.630Z,16.21
2019-06-01T00:33:25.401Z,16.52
2019-06-01T00:35:56.190Z,16.37
2019-06-01T00:38:26.961Z,16.07
2019-06-01T00:40:57.735Z,16.02
2019-06-01T00:43:28.514Z,16.10
2019-06-01T00:45:59.284Z,16.02
2019-06-01T00:48:30.068Z,16.00
2019-06-01T00:51:00.836Z,16.14
2019-06-01T00:53:31.627Z,16.06
2019-06-01T00:56:02.414Z,15.81
2019-06-01T00:58:33.173Z,15.86
2019-06-01T01:01:03.952Z,15.63
2019-06-01T01:03:34.714Z,15.43
2019-06-01T01:06:05.504Z,15.43
2019-06-01T01:08:36.269Z,15.39
2019-06-01T01:11:07.043Z,15.30
2019-06-01T01:13:37.817Z,15.44
2019-06-01T01:16:08.600Z,15.32
2019-06-01T01:18:39.365Z,15.08
2019-06-01T01:21:10.146Z,14.98
2019-06-01T01:23:40.925Z,14.96
2019-06-01T01:26:11.751Z,14.87
2019-06-01T01:28:42.500Z,14.82
2019-06-01T01:31:14.424Z,14.83
2019-06-01T01:33:45.370Z,14.83
2019-06-01T01:36:16.157Z,14.72
2019-06-01T01:38:48.288Z,14.71
2019-06-01T01:41:19.200Z,14.60
2019-06-01T01:43:50.395Z,14.64
2019-06-01T01:46:21.249Z,14.51
2019-06-01T01:48:52.324Z,14.52
2019-06-01T01:51:23.106Z,14.49
2019-06-01T01:53:54.729Z,14.47
2019-06-01T01:56:25.552Z,14.42
2019-06-01T01:58:56.515Z,14.43
2019-06-01T02:01:27.312Z,14.34
2019-06-01T02:03:59.064Z,14.33
2019-06-01T02:06:29.971Z,14.36
2019-06-01T02:09:01.850Z,14.39
2019-06-01T02:11:32.734Z,14.27
2019-06-01T02:14:03.510Z,14.22
2019-06-01T02:16:34.275Z,14.28
2019-06-01T02:19:05.042Z,14.17
2019-06-01T02:21:35.822Z,14.09
2019-06-01T02:24:06.587Z,14.06
2019-06-01T02:26:37.370Z,14.01
2019-06-01T02:29:08.139Z,14.09
2019-06-01T02:31:42.271Z,14.17
2019-06-01T02:34:11.600Z,14.05
2019-06-01T02:36:42.355Z,14.11
2019-06-01T02:39:14.134Z,14.08
2019-06-01T02:41:45.229Z,13.97
2019-06-01T02:44:16.003Z,13.98
2019-06-01T02:46:46.783Z,13.92
2019-06-01T02:49:17.545Z,13.85
2019-06-01T02:51:48.322Z,13.80
2019-06-01T02:54:19.092Z,13.81
2019-06-01T02:56:49.887Z,13.86
2019-06-01T02:59:20.669Z,13.81
2019-06-01T03:01:57.091Z,13.76
2019-06-01T03:04:24.529Z,13.69
2019-06-01T03:06:55.619Z,13.73
2019-06-01T03:09:26.799Z,13.74
2019-06-01T03:12:00.868Z,13.74
2019-06-01T03:14:32.763Z,13.73
2019-06-01T03:17:03.985Z,13.59
2019-06-01T03:19:38.024Z,13.53
2019-06-01T03:22:08.796Z,13.59
2019-06-01T03:24:40.176Z,13.61
2019-06-01T03:27:12.451Z,13.58
2019-06-01T03:29:47.137Z,13.52
2019-06-01T03:32:34.276Z,13.52
2019-06-01T03:34:50.728Z,13.54
2019-06-01T03:37:21.530Z,13.62
2019-06-01T03:39:52.422Z,13.67
2019-06-01T03:42:23.189Z,13.63
2019-06-01T03:44:53.963Z,13.55
2019-06-01T03:47:25.028Z,13.54
2019-06-01T03:49:55.825Z,13.70
2019-06-01T03:52:26.592Z,13.81
2019-06-01T03:54:57.392Z,13.69
2019-06-01T03:57:28.157Z,13.65
2019-06-01T03:59:58.939Z,13.69
2019-06-01T04:02:33.126Z,13.69
2019-06-01T04:05:05.521Z,13.71
2019-06-01T04:07:38.920Z,13.81
2019-06-01T04:10:09.966Z,13.90
2019-06-01T04:12:40.830Z,13.89
2019-06-01T04:15:16.254Z,13.97
2019-06-01T04:17:44.273Z,14.00
2019-06-01T04:20:15.142Z,14.12
2019-06-01T04:22:45.908Z,14.23
2019-06-01T04:25:16.694Z,14.26
2019-06-01T04:27:47.487Z,14.34
2019-06-01T04:30:22.052Z,14.46
2019-06-01T04:32:53.126Z,14.41
2019-06-01T04:35:23.906Z,14.52
2019-06-01T04:37:54.675Z,15.01
2019-06-01T04:40:25.456Z,15.23
2019-06-01T04:42:56.218Z,15.10
2019-06-01T04:45:26.998Z,14.99
2019-06-01T04:47:57.767Z,14.90
2019-06-01T04:50:28.540Z,14.83
2019-06-01T04:52:59.305Z,14.95
2019-06-01T04:55:30.117Z,14.91
2019-06-01T04:58:00.888Z,14.91
2019-06-01T05:00:31.666Z,14.98
2019-06-01T05:03:06.801Z,15.17
2019-06-01T05:05:35.127Z,15.29
2019-06-01T05:08:07.044Z,15.51
2019-06-01T05:10:37.979Z,15.55
2019-06-01T05:13:09.394Z,15.68
2019-06-01T05:15:40.464Z,15.48
2019-06-01T05:18:12.108Z,15.66
2019-06-01T05:20:42.925Z,15.65
2019-06-01T05:23:14.845Z,15.87
2019-06-01T05:25:45.690Z,16.06
2019-06-01T05:28:17.466Z,16.06
2019-06-01T05:30:48.361Z,15.78
2019-06-01T05:33:35.259Z,15.75
2019-06-01T05:35:51.845Z,15.96
2019-06-01T05:38:22.607Z,16.22
2019-06-01T05:40:54.045Z,16.10
2019-06-01T05:43:24.831Z,16.31
2019-06-01T05:45:55.616Z,16.31
2019-06-01T05:48:30.423Z,16.33
2019-06-01T05:50:59.064Z,16.38
2019-06-01T05:53:29.832Z,16.52
2019-06-01T05:56:00.661Z,16.67
2019-06-01T05:58:31.614Z,16.64
2019-06-01T06:01:02.553Z,16.99
2019-06-01T06:03:40.410Z,17.02
2019-06-01T06:06:06.149Z,16.86
2019-06-01T06:08:36.935Z,16.86
2019-06-01T06:11:07.701Z,16.90
2019-06-01T06:13:38.489Z,17.09
2019-06-01T06:16:09.270Z,17.18
2019-06-01T06:18:40.036Z,17.62
2019-06-01T06:21:11.886Z,17.83
2019-06-01T06:23:42.811Z,17.56
2019-06-01T06:26:15.518Z,17.18
2019-06-01T06:28:46.265Z,17.17
2019-06-01T06:31:17.076Z,17.67
2019-06-01T06:33:56.603Z,18.16
2019-06-01T06:36:21.765Z,18.30
2019-06-01T06:38:52.619Z,17.89
2019-06-01T06:41:24.438Z,18.37
2019-06-01T06:43:55.276Z,18.45
2019-06-01T06:46:26.077Z,18.64
2019-06-01T06:48:56.848Z,18.56
2019-06-01T06:51:27.626Z,18.85
2019-06-01T06:53:58.390Z,18.34
2019-06-01T06:56:29.178Z,19.07
2019-06-01T06:58:59.944Z,18.94
2019-06-01T07:01:30.726Z,18.82
2019-06-01T07:04:12.138Z,18.75
2019-06-01T07:06:34.170Z,18.53
2019-06-01T07:09:05.049Z,18.47
2019-06-01T07:11:35.831Z,19.09
2019-06-01T07:14:06.598Z,18.50
2019-06-01T07:16:37.387Z,18.61
2019-06-01T07:19:08.148Z,18.38
2019-06-01T07:21:38.946Z,19.15
2019-06-01T07:24:09.698Z,19.24
2019-06-01T07:26:40.511Z,19.08
2019-06-01T07:29:11.257Z,18.90
2019-06-01T07:31:42.050Z,19.71
2019-06-01T07:34:29.570Z,20.08
2019-06-01T07:36:45.521Z,20.55
2019-06-01T07:39:16.296Z,20.06
2019-06-01T07:41:47.089Z,20.03
2019-06-01T07:44:17.847Z,20.53
2019-06-01T07:46:48.643Z,20.12
2019-06-01T07:49:20.938Z,20.33
2019-06-01T07:51:52.035Z,20.34
2019-06-01T07:54:24.745Z,20.53
2019-06-01T07:56:55.666Z,20.73
2019-06-01T07:59:28.020Z,20.61
2019-06-01T08:01:59.269Z,20.94
2019-06-01T08:04:40.644Z,21.06
2019-06-01T08:07:03.119Z,21.25
2019-06-01T08:09:33.999Z,20.63
2019-06-01T08:12:04.808Z,20.29
2019-06-01T08:14:35.820Z,21.28
2019-06-01T08:17:06.619Z,21.46
2019-06-01T08:19:37.394Z,21.47
2019-06-01T08:22:08.323Z,21.84
2019-06-01T08:24:39.189Z,21.20
2019-06-01T08:27:09.962Z,22.06
2019-06-01T08:29:40.741Z,22.14
2019-06-01T08:32:11.531Z,22.25
2019-06-01T08:34:42.287Z,22.34
2019-06-01T08:37:14.082Z,22.34
2019-06-01T08:39:44.883Z,22.29
2019-06-01T08:42:15.651Z,22.39
2019-06-01T08:44:46.455Z,22.15
2019-06-01T08:47:17.225Z,21.80
2019-06-01T08:49:48.002Z,21.10
2019-06-01T08:52:18.765Z,21.44
2019-06-01T08:54:49.550Z,21.74
2019-06-01T08:57:20.349Z,22.17
2019-06-01T08:59:51.129Z,22.17
2019-06-01T09:02:21.892Z,23.07
2019-06-01T09:04:52.705Z,23.58
2019-06-01T09:07:24.765Z,23.87
2019-06-01T09:09:55.770Z,23.69
2019-06-01T09:12:27.252Z,23.59
2019-06-01T09:14:58.119Z,23.85
2019-06-01T09:17:29.405Z,23.76
2019-06-01T09:20:00.321Z,23.28
2019-06-01T09:22:31.596Z,22.88
2019-06-01T09:25:03.702Z,23.04
2019-06-01T09:27:34.476Z,24.08
2019-06-01T09:30:06.056Z,23.94
2019-06-01T09:32:36.824Z,24.34
2019-06-01T09:35:07.914Z,24.49
2019-06-01T09:37:38.685Z,24.45
2019-06-01T09:40:09.766Z,24.65
2019-06-01T09:42:40.548Z,24.30
2019-06-01T09:45:11.386Z,24.34
2019-06-01T09:47:42.201Z,24.57
2019-06-01T09:50:13.283Z,24.36
2019-06-01T09:52:44.060Z,24.48
2019-06-01T09:55:14.950Z,24.91
2019-06-01T09:57:45.828Z,25.11
2019-06-01T10:00:17.309Z,25.23
2019-06-01T10:02:48.088Z,24.85
2019-06-01T10:05:18.876Z,25.43
2019-06-01T10:07:49.635Z,25.86
2019-06-01T10:10:20.409Z,25.57
2019-06-01T10:12:51.197Z,25.57
2019-06-01T10:15:21.964Z,25.82
2019-06-01T10:17:52.727Z,25.50
2019-06-01T10:20:23.512Z,25.34
2019-06-01T10:22:54.277Z,25.67
2019-06-01T10:25:25.058Z,25.18
2019-06-01T10:27:55.840Z,25.51
2019-06-01T10:30:26.609Z,26.19
2019-06-01T10:32:57.379Z,26.52
2019-06-01T10:35:28.149Z,27.23
2019-06-01T10:37:58.923Z,26.77
2019-06-01T10:40:31.171Z,26.69
2019-06-01T10:43:02.095Z,25.63
2019-06-01T10:45:33.575Z,25.83
2019-06-01T10:48:04.431Z,26.88
2019-06-01T10:50:36.610Z,27.06
2019-06-01T10:53:07.510Z,26.77
2019-06-01T10:55:38.500Z,26.95
2019-06-01T10:58:09.301Z,26.03
2019-06-01T11:00:47.688Z,25.99
2019-06-01T11:03:12.749Z,26.19
2019-06-01T11:05:43.531Z,26.90
2019-06-01T11:08:14.299Z,26.54
2019-06-01T11:10:45.072Z,26.19
2019-06-01T11:13:15.837Z,27.22
2019-06-01T11:15:46.610Z,27.47
2019-06-01T11:18:17.375Z,28.00
2019-06-01T11:20:48.151Z,26.50
2019-06-01T11:23:18.941Z,27.65
2019-06-01T11:25:49.722Z,27.93
2019-06-01T11:28:20.496Z,27.41
2019-06-01T11:30:51.303Z,27.69
2019-06-01T11:33:22.147Z,26.99
2019-06-01T11:35:52.877Z,28.37
2019-06-01T11:38:23.636Z,27.68
2019-06-01T11:40:54.433Z,28.39
2019-06-01T11:43:25.204Z,28.57
2019-06-01T11:45:55.976Z,28.83
2019-06-01T11:48:26.748Z,28.84
2019-06-01T11:50:57.517Z,28.51
2019-06-01T11:53:28.295Z,27.95
2019-06-01T11:55:59.081Z,27.83
2019-06-01T11:58:29.851Z,28.24
2019-06-01T12:01:00.638Z,28.74
2019-06-01T12:03:31.403Z,28.32
2019-06-01T12:06:02.688Z,27.70
2019-06-01T12:08:34.279Z,28.27
2019-06-01T12:11:05.506Z,28.32
2019-06-01T12:13:36.284Z,27.86
2019-06-01T12:16:07.090Z,28.08
2019-06-01T12:18:38.524Z,29.07
2019-06-01T12:21:09.376Z,29.34
2019-06-01T12:23:41.458Z,28.90
2019-06-01T12:26:12.394Z,29.25
2019-06-01T12:28:43.828Z,29.04
2019-06-01T12:31:14.770Z,29.31
2019-06-01T12:33:46.403Z,29.83
2019-06-01T12:36:17.268Z,29.03
2019-06-01T12:38:49.944Z,27.91
2019-06-01T12:41:21.320Z,27.73
2019-06-01T12:44:08.920Z,27.74
2019-06-01T12:46:41.627Z,28.08
2019-06-01T12:49:12.663Z,28.46
2019-06-01T12:51:44.531Z,28.24
2019-06-01T12:54:15.442Z,28.28
2019-06-01T12:56:47.732Z,28.92
2019-06-01T12:59:18.903Z,29.65
2019-06-01T13:01:49.693Z,29.96
2019-06-01T13:04:20.472Z,29.18
2019-06-01T13:06:53.032Z,29.30
2019-06-01T13:09:23.920Z,29.24
2019-06-01T13:11:54.701Z,29.69
2019-06-01T13:14:25.483Z,29.83
2019-06-01T13:17:06.667Z,30.22
2019-06-01T13:19:28.966Z,30.40
2019-06-01T13:21:59.746Z,30.61
2019-06-01T13:24:30.521Z,29.00
2019-06-01T13:27:01.371Z,28.74
2019-06-01T13:29:34.892Z,27.82
2019-06-01T13:32:05.679Z,29.27
2019-06-01T13:34:36.469Z,28.87
2019-06-01T13:37:07.255Z,29.70
2019-06-01T13:39:38.149Z,29.78
2019-06-01T13:42:08.945Z,28.84
2019-06-01T13:44:39.715Z,28.70
2019-06-01T13:47:10.523Z,29.22
2019-06-01T13:49:41.313Z,29.13
2019-06-01T13:52:12.099Z,28.67
2019-06-01T13:54:44.068Z,29.62
2019-06-01T13:57:14.992Z,31.02
2019-06-01T13:59:46.882Z,29.88
2019-06-01T14:02:17.740Z,29.88
2019-06-01T14:04:49.802Z,30.80
2019-06-01T14:07:20.808Z,31.50
2019-06-01T14:09:52.159Z,30.54
2019-06-01T14:12:24.433Z,30.79
2019-06-01T14:14:55.621Z,30.63
2019-06-01T14:17:26.423Z,29.61
2019-06-01T14:19:57.219Z,29.98
2019-06-01T14:22:27.982Z,30.22
2019-06-01T14:25:11.076Z,30.91
2019-06-01T14:27:31.453Z,30.51
2019-06-01T14:30:05.117Z,30.75
2019-06-01T14:32:36.004Z,31.69
2019-06-01T14:35:07.070Z,32.44
2019-06-01T14:37:37.881Z,32.96
2019-06-01T14:40:09.052Z,33.48
2019-06-01T14:42:40.056Z,32.96
2019-06-01T14:45:10.923Z,33.63
2019-06-01T14:47:41.720Z,33.52
2019-06-01T14:50:12.893Z,33.98
2019-06-01T14:52:43.985Z,33.59
2019-06-01T14:55:14.966Z,34.46
2019-06-01T14:57:45.763Z,34.22
2019-06-01T15:00:16.917Z,34.45
2019-06-01T15:02:48.219Z,34.18
2019-06-01T15:05:19.217Z,33.93
2019-06-01T15:07:50.203Z,32.84
2019-06-01T15:10:20.959Z,32.95
2019-06-01T15:12:56.529Z,32.57
2019-06-01T15:15:24.735Z,32.17
2019-06-01T15:17:55.589Z,32.77
2019-06-01T15:20:26.301Z,32.52
2019-06-01T15:22:58.334Z,32.04
2019-06-01T15:25:29.252Z,31.38
2019-06-01T15:28:00.047Z,31.01
2019-06-01T15:30:30.823Z,29.68
2019-06-01T15:33:03.255Z,29.46
2019-06-01T15:35:34.236Z,29.23
2019-06-01T15:38:05.011Z,29.58
2019-06-01T15:40:35.788Z,29.96
2019-06-01T15:43:06.567Z,29.76
2019-06-01T15:45:40.563Z,29.96
2019-06-01T15:48:10.049Z,29.63
2019-06-01T15:50:40.797Z,29.41
2019-06-01T15:53:11.578Z,29.38
2019-06-01T15:55:42.368Z,29.82
2019-06-01T15:58:13.133Z,29.54
2019-06-01T16:00:43.920Z,29.23
2019-06-01T16:03:14.796Z,29.28
2019-06-01T16:05:45.576Z,27.47
2019-06-01T16:08:16.345Z,27.93
2019-06-01T16:10:47.123Z,28.31
2019-06-01T16:13:17.945Z,27.72
2019-06-01T16:15:48.834Z,28.41
2019-06-01T16:18:19.620Z,28.39
2019-06-01T16:20:50.405Z,28.53
2019-06-01T16:23:21.192Z,28.23
2019-06-01T16:26:03.726Z,28.21
2019-06-01T16:28:24.644Z,28.57
2019-06-01T16:30:56.356Z,28.44
2019-06-01T16:33:27.300Z,28.08
2019-06-01T16:35:58.819Z,28.06
2019-06-01T16:38:29.644Z,27.99
2019-06-01T16:41:01.369Z,28.40
2019-06-01T16:43:32.303Z,28.08
2019-06-01T16:46:03.867Z,28.32
2019-06-01T16:48:34.777Z,27.99
2019-06-01T16:51:05.889Z,27.75
2019-06-01T16:53:36.750Z,27.77
2019-06-01T16:56:07.541Z,28.00
2019-06-01T16:58:38.422Z,27.82
2019-06-01T17:01:09.207Z,27.25
2019-06-01T17:03:39.979Z,27.31
2019-06-01T17:06:10.780Z,27.19
2019-06-01T17:08:41.569Z,26.85
2019-06-01T17:11:12.337Z,27.27
2019-06-01T17:13:43.118Z,27.15
2019-06-01T17:16:13.912Z,27.10
2019-06-01T17:18:44.687Z,26.90
2019-06-01T17:21:15.514Z,27.02
2019-06-01T17:23:46.283Z,27.09
2019-06-01T17:26:17.054Z,27.03
2019-06-01T17:28:47.825Z,26.77
2019-06-01T17:31:18.962Z,27.04
2019-06-01T17:33:49.781Z,27.02
2019-06-01T17:36:20.567Z,26.97
2019-06-01T17:38:51.362Z,27.21
2019-06-01T17:41:22.128Z,26.91
2019-06-01T17:43:52.891Z,26.92
2019-06-01T17:46:23.685Z,26.70
2019-06-01T17:48:54.447Z,26.58
2019-06-01T17:51:27.175Z,26.95
2019-06-01T17:53:57.963Z,26.64
2019-06-01T17:56:28.756Z,26.74
2019-06-01T17:58:59.533Z,26.17
2019-06-01T18:01:30.312Z,26.02
2019-06-01T18:04:01.763Z,26.05
2019-06-01T18:06:32.709Z,26.23
2019-06-01T18:09:06.082Z,26.42
2019-06-01T18:11:36.864Z,26.15
2019-06-01T18:14:08.268Z,25.71
2019-06-01T18:16:39.153Z,25.78
2019-06-01T18:19:10.408Z,25.95
2019-06-01T18:21:41.234Z,25.73
2019-06-01T18:24:12.731Z,25.50
2019-06-01T18:26:43.692Z,25.76
2019-06-01T18:29:14.474Z,25.84
2019-06-01T18:31:45.252Z,25.71
2019-06-01T18:34:16.016Z,25.52
2019-06-01T18:36:46.790Z,25.52
2019-06-01T18:39:17.559Z,25.32
2019-06-01T18:41:48.375Z,25.19
2019-06-01T18:44:19.141Z,25.17
2019-06-01T18:46:49.930Z,24.81
2019-06-01T18:49:20.708Z,24.59
2019-06-01T18:51:51.492Z,24.04
2019-06-01T18:54:22.252Z,23.84
2019-06-01T18:57:08.804Z,23.66
2019-06-01T18:59:25.779Z,23.56
2019-06-01T19:01:56.489Z,23.42
2019-06-01T19:04:27.256Z,23.23
2019-06-01T19:06:58.038Z,23.20
2019-06-01T19:09:28.809Z,23.02
2019-06-01T19:11:59.595Z,22.79
2019-06-01T19:14:30.381Z,22.73
2019-06-01T19:17:01.257Z,22.60
2019-06-01T19:19:32.097Z,22.49
2019-06-01T19:22:02.891Z,22.60
2019-06-01T19:24:33.657Z,22.21
2019-06-01T19:27:04.445Z,22.22
2019-06-01T19:29:35.224Z,22.22
2019-06-01T19:32:06.757Z,22.08
2019-06-01T19:34:39.687Z,22.04
2019-06-01T19:37:10.973Z,21.98
2019-06-01T19:39:41.941Z,21.94
2019-06-01T19:42:13.439Z,21.88
2019-06-01T19:44:44.434Z,21.77
2019-06-01T19:47:16.074Z,21.75
2019-06-01T19:49:46.993Z,21.58
2019-06-01T19:52:18.994Z,21.65
2019-06-01T19:54:49.851Z,20.19
2019-06-01T19:57:22.683Z,21.48
2019-06-01T19:59:53.320Z,21.56
2019-06-01T20:02:33.287Z,21.48
2019-06-01T20:04:56.876Z,21.41
2019-06-01T20:07:27.656Z,21.57
2019-06-01T20:09:58.429Z,21.18
2019-06-01T20:12:29.206Z,21.25
2019-06-01T20:14:59.994Z,21.13
2019-06-01T20:17:30.783Z,21.01
2019-06-01T20:20:03.946Z,21.05
2019-06-01T20:22:34.724Z,20.89
2019-06-01T20:25:06.395Z,20.83
2019-06-01T20:27:37.169Z,20.67
2019-06-01T20:30:08.339Z,20.63
2019-06-01T20:32:39.238Z,20.83
2019-06-01T20:35:11.739Z,20.58
2019-06-01T20:37:42.686Z,20.58
2019-06-01T20:40:14.199Z,20.68
2019-06-01T20:42:45.125Z,20.52
2019-06-01T20:45:16.748Z,20.61
2019-06-01T20:47:47.801Z,20.58
2019-06-01T20:50:18.739Z,20.16
2019-06-01T20:52:49.454Z,20.17
2019-06-01T20:55:21.219Z,20.32
2019-06-01T20:57:52.017Z,20.35
2019-06-01T21:00:23.780Z,20.22
2019-06-01T21:02:54.684Z,20.13
2019-06-01T21:05:25.457Z,20.02
2019-06-01T21:07:57.574Z,20.01
2019-06-01T21:10:28.632Z,19.97
2019-06-01T21:12:59.412Z,19.90
2019-06-01T21:15:30.176Z,19.93
2019-06-01T21:18:00.949Z,19.80
2019-06-01T21:20:31.717Z,19.85
2019-06-01T21:23:02.703Z,19.74
2019-06-01T21:25:33.480Z,19.77
2019-06-01T21:28:04.379Z,19.71
2019-06-01T21:30:35.239Z,19.71
2019-06-01T21:33:06.022Z,19.65
2019-06-01T21:35:36.784Z,19.65
2019-06-01T21:38:07.546Z,19.64
2019-06-01T21:40:38.358Z,19.73
2019-06-01T21:43:23.800Z,19.62
2019-06-01T21:45:43.072Z,19.56
2019-06-01T21:48:13.832Z,19.55
2019-06-01T21:50:44.607Z,19.60
2019-06-01T21:53:15.953Z,19.45
2019-06-01T21:55:46.777Z,19.44
2019-06-01T21:58:18.807Z,19.42
2019-06-01T22:00:50.012Z,19.39
2019-06-01T22:03:21.210Z,19.61
2019-06-01T22:05:51.960Z,19.53
2019-06-01T22:08:23.227Z,19.63
2019-06-01T22:10:54.046Z,19.69
2019-06-01T22:13:27.077Z,19.53
2019-06-01T22:15:57.504Z,19.32
2019-06-01T22:18:28.287Z,19.37
2019-06-01T22:20:59.053Z,19.06
2019-06-01T22:23:29.845Z,19.04
2019-06-01T22:26:00.613Z,19.00
2019-06-01T22:28:31.398Z,19.20
2019-06-01T22:31:02.219Z,19.01
2019-06-01T22:33:33.052Z,18.95
2019-06-01T22:36:03.834Z,19.00
2019-06-01T22:38:34.606Z,19.09
2019-06-01T22:41:05.371Z,19.06
2019-06-01T22:43:45.431Z,18.80
2019-06-01T22:46:08.826Z,18.83
2019-06-01T22:48:39.583Z,18.87
2019-06-01T22:51:10.360Z,18.98
2019-06-01T22:53:41.128Z,18.99
2019-06-01T22:56:11.915Z,18.93
2019-06-01T22:58:42.681Z,18.69
2019-06-01T23:01:13.473Z,18.42
2019-06-01T23:03:44.252Z,18.27
2019-06-01T23:06:15.048Z,18.09
2019-06-01T23:08:45.826Z,18.15
2019-06-01T23:11:16.612Z,18.28
2019-06-01T23:13:53.462Z,18.08
2019-06-01T23:16:21.499Z,17.97
2019-06-01T23:18:52.356Z,17.82
2019-06-01T23:21:23.715Z,17.79
2019-06-01T23:23:54.618Z,17.74
2019-06-01T23:26:26.149Z,17.66
2019-06-01T23:28:57.125Z,17.72
2019-06-01T23:31:28.495Z,17.62
2019-06-01T23:33:59.331Z,17.58
2019-06-01T23:36:30.737Z,17.59
2019-06-01T23:39:01.721Z,17.68
2019-06-01T23:41:32.985Z,17.53
2019-06-01T23:44:11.573Z,17.56
2019-06-01T23:46:37.527Z,17.44
2019-06-01T23:49:08.295Z,17.50
2019-06-01T23:51:39.086Z,17.58
2019-06-01T23:54:09.852Z,17.37
2019-06-01T23:56:40.640Z,17.47
2019-06-01T23:59:11.413Z,17.36
